createdAt,value
2019-01-05T00:02:32.015Z,29.43
2019-01-05T00:05:19.012Z,24.57
2019-01-05T00:08:22.703Z,27.60
2019-01-05T00:11:10.046Z,29.77
2019-01-05T00:14:08.226Z,28.47
2019-01-05T00:17:03.654Z,32.03
2019-01-05T00:19:47.077Z,29.90
2019-01-05T00:22:38.045Z,36.40
2019-01-05T00:25:41.682Z,33.40
2019-01-05T00:28:31.440Z,33.80
2019-01-05T00:31:20.632Z,28.27
2019-01-05T00:34:30.713Z,29.90
2019-01-05T00:37:34.802Z,27.23
2019-01-05T00:40:26.838Z,30.37
2019-01-05T00:43:15.618Z,29.77
2019-01-05T00:46:04.864Z,30.10
2019-01-05T00:48:54.021Z,31.30
2019-01-05T00:51:49.705Z,32.37
2019-01-05T00:54:42.194Z,29.83
2019-01-05T00:57:30.450Z,30.70
2019-01-05T01:00:21.048Z,32.20
2019-01-05T01:03:09.140Z,31.60
2019-01-05T01:05:56.506Z,33.13
2019-01-05T01:08:43.383Z,35.47
2019-01-05T01:11:29.535Z,31.67
2019-01-05T01:14:16.690Z,29.90
2019-01-05T01:17:17.565Z,34.83
2019-01-05T01:20:04.372Z,35.10
2019-01-05T01:22:51.401Z,34.47
2019-01-05T01:25:38.929Z,28.67
2019-01-05T01:28:25.240Z,27.70
2019-01-05T01:31:26.993Z,33.30
2019-01-05T01:34:24.361Z,34.00
2019-01-05T01:37:11.133Z,29.20
2019-01-05T01:39:58.827Z,31.63
2019-01-05T01:42:59.947Z,34.00
2019-01-05T01:46:05.953Z,34.40
2019-01-05T01:49:00.385Z,32.13
2019-01-05T01:52:03.489Z,30.60
2019-01-05T01:55:04.053Z,28.97
2019-01-05T01:58:05.313Z,33.57
2019-01-05T02:00:55.477Z,27.83
2019-01-05T02:03:43.802Z,36.10
2019-01-05T02:06:33.277Z,28.77
2019-01-05T02:09:36.485Z,31.50
2019-01-05T02:15:19.409Z,37.30
2019-01-05T02:18:39.016Z,32.97
2019-01-05T02:21:52.028Z,30.00
2019-01-05T02:25:37.888Z,29.87
2019-01-05T02:29:03.684Z,27.90
2019-01-05T02:32:10.122Z,34.10
2019-01-05T02:35:16.302Z,30.13
2019-01-05T02:38:40.815Z,31.90
2019-01-05T02:42:06.384Z,30.67
2019-01-05T02:45:35.260Z,32.40
2019-01-05T02:49:03.193Z,30.53
2019-01-05T02:52:39.335Z,30.97
2019-01-05T02:56:02.545Z,31.40
2019-01-05T02:59:16.949Z,30.87
2019-01-05T03:02:47.373Z,29.00
2019-01-05T03:06:05.553Z,28.47
2019-01-05T03:09:42.011Z,27.67
2019-01-05T03:13:29.646Z,24.53
2019-01-05T03:17:02.453Z,28.47
2019-01-05T03:20:13.920Z,27.70
2019-01-05T03:23:37.528Z,26.63
2019-01-05T03:27:21.143Z,24.00
2019-01-05T03:30:45.326Z,23.23
2019-01-05T03:34:16.171Z,27.53
2019-01-05T03:37:50.497Z,27.07
2019-01-05T03:41:22.260Z,25.87
2019-01-05T03:44:56.081Z,24.57
2019-01-05T03:48:10.547Z,25.97
2019-01-05T03:51:27.103Z,29.00
2019-01-05T03:55:03.230Z,32.33
2019-01-05T03:58:20.041Z,28.47
2019-01-05T04:01:50.361Z,27.37
2019-01-05T04:05:30.616Z,23.13
2019-01-05T04:08:44.249Z,24.87
2019-01-05T04:12:41.008Z,29.90
2019-01-05T04:16:07.031Z,29.00
2019-01-05T04:19:47.316Z,26.07
2019-01-05T04:23:33.118Z,29.20
2019-01-05T04:27:04.260Z,33.50
2019-01-05T04:30:31.122Z,25.77
2019-01-05T04:33:56.548Z,27.57
2019-01-05T04:37:02.786Z,29.13
2019-01-05T04:40:58.301Z,26.30
2019-01-05T04:44:25.490Z,27.00
2019-01-05T04:47:44.642Z,28.67
2019-01-05T04:51:01.926Z,29.60
2019-01-05T04:54:29.899Z,27.70
2019-01-05T04:58:04.536Z,30.70
2019-01-05T05:01:44.912Z,25.40
2019-01-05T05:05:22.049Z,23.67
2019-01-05T05:08:38.145Z,23.00
2019-01-05T05:12:15.760Z,25.60
2019-01-05T05:15:45.921Z,28.13
2019-01-05T05:19:55.001Z,24.90
2019-01-05T05:23:44.816Z,27.97
2019-01-05T05:27:07.740Z,23.13
2019-01-05T05:30:35.698Z,24.03
2019-01-05T05:34:08.129Z,32.47
2019-01-05T05:37:39.965Z,27.80
2019-01-05T05:41:17.492Z,25.50
2019-01-05T05:44:42.493Z,23.93
2019-01-05T05:48:09.527Z,25.77
2019-01-05T05:51:30.854Z,22.13
2019-01-05T05:54:53.889Z,23.23
2019-01-05T05:58:43.197Z,24.63
2019-01-05T06:02:06.941Z,23.77
2019-01-05T06:05:37.660Z,21.83
2019-01-05T06:09:07.828Z,23.87
2019-01-05T06:12:49.553Z,30.27
2019-01-05T06:16:04.043Z,24.00
2019-01-05T06:19:34.145Z,27.43
2019-01-05T06:23:16.361Z,22.93
2019-01-05T06:26:42.264Z,25.37
2019-01-05T06:30:16.373Z,24.20
2019-01-05T06:33:54.083Z,25.53
2019-01-05T06:37:41.304Z,22.13
2019-01-05T06:41:08.362Z,27.87
2019-01-05T06:44:40.653Z,25.70
2019-01-05T06:48:23.929Z,24.87
2019-01-05T06:52:12.269Z,29.27
2019-01-05T06:55:29.387Z,28.13
2019-01-05T06:58:53.129Z,25.53
2019-01-05T07:02:48.869Z,24.70
2019-01-05T07:05:59.860Z,25.00
2019-01-05T07:09:51.679Z,26.10
2019-01-05T07:12:53.712Z,22.23
2019-01-05T07:16:38.006Z,22.30
2019-01-05T07:20:29.923Z,29.03
2019-01-05T07:24:13.889Z,21.60
2019-01-05T07:27:37.984Z,27.37
2019-01-05T07:31:04.745Z,23.53
2019-01-05T07:34:18.368Z,28.87
2019-01-05T07:37:51.458Z,27.80
2019-01-05T07:41:23.284Z,25.60
2019-01-05T07:44:47.828Z,28.00
2019-01-05T07:48:18.057Z,24.43
2019-01-05T07:51:47.157Z,28.83
2019-01-05T07:55:23.669Z,24.23
2019-01-05T07:58:41.080Z,29.60
2019-01-05T08:02:17.235Z,26.20
2019-01-05T08:06:03.435Z,28.70
2019-01-05T08:09:52.938Z,25.97
2019-01-05T08:13:25.617Z,22.67
2019-01-05T08:17:05.537Z,25.90
2019-01-05T08:20:47.768Z,24.63
2019-01-05T08:24:34.238Z,24.27
2019-01-05T08:28:07.787Z,24.73
2019-01-05T08:31:40.053Z,20.73
2019-01-05T08:35:11.020Z,24.97
2019-01-05T08:38:32.636Z,24.13
2019-01-05T08:42:22.666Z,22.50
2019-01-05T08:45:55.820Z,22.30
2019-01-05T08:49:18.276Z,19.17
2019-01-05T08:52:24.141Z,19.87
2019-01-05T08:56:00.429Z,17.13
2019-01-05T08:59:26.953Z,14.47
2019-01-05T09:03:05.261Z,16.07
2019-01-05T09:06:39.320Z,16.93
2019-01-05T09:10:35.040Z,14.40
2019-01-05T09:14:18.352Z,12.87
2019-01-05T09:17:47.599Z,13.77
2019-01-05T09:21:08.912Z,20.10
2019-01-05T09:24:44.423Z,15.03
2019-01-05T09:28:14.646Z,15.10
2019-01-05T09:31:39.506Z,17.07
2019-01-05T09:35:19.984Z,14.70
2019-01-05T09:38:50.461Z,13.20
2019-01-05T09:42:19.909Z,15.23
2019-01-05T09:46:19.116Z,17.00
2019-01-05T09:50:05.233Z,17.93
2019-01-05T09:53:29.379Z,16.77
2019-01-05T09:57:10.009Z,17.67
2019-01-05T10:01:14.684Z,17.37
2019-01-05T10:04:48.425Z,16.97
2019-01-05T10:08:25.604Z,17.90
2019-01-05T10:12:06.717Z,18.50
2019-01-05T10:15:16.813Z,20.83
2019-01-05T10:18:55.969Z,19.53
2019-01-05T10:22:17.565Z,22.60
2019-01-05T10:25:57.289Z,19.73
2019-01-05T10:29:19.281Z,19.57
2019-01-05T10:33:00.884Z,18.80
2019-01-05T10:37:00.799Z,18.03
2019-01-05T10:40:34.306Z,20.33
2019-01-05T10:44:18.058Z,18.20
2019-01-05T10:47:26.170Z,24.20
2019-01-05T10:50:48.724Z,21.23
2019-01-05T10:54:07.949Z,21.57
2019-01-05T10:57:33.392Z,20.53
2019-01-05T11:01:04.371Z,21.47
2019-01-05T11:04:40.944Z,21.37
2019-01-05T11:07:53.858Z,21.80
2019-01-05T11:11:11.367Z,20.23
2019-01-05T11:14:39.494Z,22.77
2019-01-05T11:18:12.034Z,22.33
2019-01-05T11:21:36.965Z,24.00
2019-01-05T11:25:26.641Z,23.13
2019-01-05T11:28:46.658Z,24.20
2019-01-05T11:31:57.993Z,25.83
2019-01-05T11:35:49.953Z,35.00
2019-01-05T11:39:23.247Z,28.97
2019-01-05T11:42:59.934Z,25.60
2019-01-05T11:46:37.549Z,24.17
2019-01-05T11:50:16.055Z,27.10
2019-01-05T11:53:40.855Z,23.10
2019-01-05T11:57:10.885Z,23.00
2019-01-05T12:00:48.501Z,26.57
2019-01-05T12:04:31.677Z,23.17
2019-01-05T12:07:46.294Z,23.50
2019-01-05T12:10:59.223Z,26.47
2019-01-05T12:14:21.554Z,24.23
2019-01-05T12:17:58.408Z,19.53
2019-01-05T12:21:26.515Z,21.40
2019-01-05T12:25:24.359Z,20.40
2019-01-05T12:28:40.893Z,19.70
2019-01-05T12:32:10.333Z,19.23
2019-01-05T12:35:46.081Z,19.27
2019-01-05T12:39:03.034Z,18.87
2019-01-05T12:42:36.584Z,16.53
2019-01-05T12:45:49.105Z,20.13
2019-01-05T12:49:29.889Z,19.03
2019-01-05T12:53:07.129Z,27.83
2019-01-05T12:56:42.841Z,22.10
2019-01-05T13:00:14.359Z,18.97
2019-01-05T13:03:45.557Z,21.37
2019-01-05T13:07:16.451Z,21.87
2019-01-05T13:10:52.933Z,18.80
2019-01-05T13:14:13.981Z,24.00
2019-01-05T13:17:44.314Z,21.07
2019-01-05T13:21:31.305Z,19.57
2019-01-05T13:25:04.229Z,23.70
2019-01-05T13:28:45.529Z,16.53
2019-01-05T13:32:18.129Z,18.50
2019-01-05T13:35:39.795Z,14.50
2019-01-05T13:39:10.964Z,12.13
2019-01-05T13:42:45.098Z,11.70
2019-01-05T13:46:06.077Z,16.63
2019-01-05T13:49:45.061Z,16.63
2019-01-05T13:52:56.214Z,22.17
2019-01-05T13:56:04.740Z,18.60
2019-01-05T13:58:59.469Z,17.30
2019-01-05T14:02:05.627Z,13.87
2019-01-05T14:04:52.525Z,14.53
2019-01-05T14:07:49.643Z,13.13
2019-01-05T14:10:49.938Z,13.57
2019-01-05T14:13:52.586Z,13.90
2019-01-05T14:16:48.833Z,15.67
2019-01-05T14:19:46.377Z,12.20
2019-01-05T14:22:32.982Z,10.67
2019-01-05T14:25:13.741Z,11.87
2019-01-05T14:28:00.509Z,10.23
2019-01-05T14:30:48.943Z,7.50
2019-01-05T14:33:49.365Z,7.00
2019-01-05T14:36:32.464Z,7.73
2019-01-05T14:39:35.596Z,7.40
2019-01-05T14:42:22.507Z,10.90
2019-01-05T14:45:11.035Z,9.63
2019-01-05T14:48:02.202Z,10.00
2019-01-05T14:50:40.722Z,10.77
2019-01-05T14:53:27.455Z,9.50
2019-01-05T14:56:22.060Z,11.00
2019-01-05T14:59:10.058Z,14.00
2019-01-05T15:02:10.214Z,9.63
2019-01-05T15:05:05.339Z,11.70
2019-01-05T15:07:52.578Z,10.97
2019-01-05T15:10:40.909Z,11.10
2019-01-05T15:13:35.519Z,15.30
2019-01-05T15:16:40.745Z,12.10
2019-01-05T15:19:44.462Z,11.77
2019-01-05T15:22:41.354Z,10.73
2019-01-05T15:25:38.097Z,15.60
2019-01-05T15:28:25.049Z,9.67
2019-01-05T15:31:21.268Z,14.70
2019-01-05T15:34:28.071Z,13.07
2019-01-05T15:37:31.567Z,10.43
2019-01-05T15:40:18.257Z,12.20
2019-01-05T15:43:12.534Z,10.47
2019-01-05T15:46:13.165Z,10.87
2019-01-05T15:49:04.325Z,11.50
2019-01-05T15:52:10.502Z,11.63
2019-01-05T15:55:01.663Z,13.67
2019-01-05T15:57:48.700Z,13.30
2019-01-05T16:00:43.163Z,13.67
2019-01-05T16:03:32.327Z,10.00
2019-01-05T16:06:20.600Z,11.60
2019-01-05T16:09:07.739Z,12.43
2019-01-05T16:11:53.210Z,10.33
2019-01-05T16:14:39.933Z,12.73
2019-01-05T16:17:34.504Z,12.53
2019-01-05T16:20:38.054Z,13.63
2019-01-05T16:23:28.898Z,10.37
2019-01-05T16:26:16.916Z,13.33
2019-01-05T16:29:08.578Z,12.83
2019-01-05T16:31:50.469Z,13.70
2019-01-05T16:34:44.587Z,10.60
2019-01-05T16:37:31.773Z,13.30
2019-01-05T16:40:26.382Z,13.37
2019-01-05T16:43:08.269Z,14.83
2019-01-05T16:45:59.485Z,15.50
2019-01-05T16:48:53.822Z,14.83
2019-01-05T16:51:44.180Z,15.07
2019-01-05T16:54:32.104Z,15.23
2019-01-05T16:57:20.041Z,14.23
2019-01-05T17:00:20.474Z,16.53
2019-01-05T17:03:27.669Z,15.30
2019-01-05T17:06:24.834Z,15.50
2019-01-05T17:09:06.572Z,15.47
2019-01-05T17:11:55.877Z,15.43
2019-01-05T17:14:43.195Z,12.43
2019-01-05T17:17:29.790Z,13.90
2019-01-05T17:20:10.772Z,13.40
2019-01-05T17:22:58.705Z,15.40
2019-01-05T17:25:49.694Z,14.70
2019-01-05T17:28:36.520Z,11.80
2019-01-05T17:31:37.226Z,11.43
2019-01-05T17:34:34.590Z,11.87
2019-01-05T17:37:35.267Z,13.23
2019-01-05T17:40:26.091Z,12.50
2019-01-05T17:43:13.709Z,11.70
2019-01-05T17:46:00.869Z,12.30
2019-01-05T17:48:47.416Z,11.50
2019-01-05T17:51:47.276Z,16.47
2019-01-05T17:54:36.645Z,14.00
2019-01-05T17:57:34.484Z,13.63
2019-01-05T18:00:18.435Z,10.03
2019-01-05T18:03:05.869Z,10.40
2019-01-05T18:06:01.411Z,8.33
2019-01-05T18:08:48.068Z,11.67
2019-01-05T18:11:35.138Z,9.83
2019-01-05T18:14:41.625Z,10.30
2019-01-05T18:17:25.343Z,9.53
2019-01-05T18:20:19.400Z,9.07
2019-01-05T18:23:07.810Z,13.20
2019-01-05T18:26:01.928Z,10.87
2019-01-05T18:28:59.079Z,10.70
2019-01-05T18:31:47.064Z,9.73
2019-01-05T18:34:48.180Z,10.63
2019-01-05T18:37:41.730Z,10.80
2019-01-05T18:40:28.658Z,10.73
2019-01-05T18:43:25.926Z,13.67
2019-01-05T18:46:13.180Z,13.30
2019-01-05T18:49:13.529Z,11.60
2019-01-05T18:52:01.448Z,15.00
2019-01-05T18:54:48.250Z,12.07
2019-01-05T18:57:48.664Z,16.00
2019-01-05T19:00:39.777Z,13.40
2019-01-05T19:03:26.873Z,13.83
2019-01-05T19:06:27.803Z,10.03
2019-01-05T19:09:30.296Z,8.53
2019-01-05T19:12:33.980Z,12.60
2019-01-05T19:15:20.751Z,9.37
2019-01-05T19:18:21.230Z,13.30
2019-01-05T19:21:06.324Z,10.67
2019-01-05T19:23:53.012Z,10.30
2019-01-05T19:26:47.851Z,11.20
2019-01-05T19:29:41.924Z,11.33
2019-01-05T19:32:33.302Z,10.30
2019-01-05T19:38:27.114Z,9.77
2019-01-05T19:41:23.883Z,10.30
2019-01-05T19:44:11.093Z,9.90
2019-01-05T19:46:57.982Z,10.47
2019-01-05T19:49:44.795Z,9.47
2019-01-05T19:52:42.978Z,12.70
2019-01-05T19:55:30.190Z,10.40
2019-01-05T19:58:17.130Z,9.80
2019-01-05T20:00:57.073Z,10.47
2019-01-05T20:04:03.554Z,9.27
2019-01-05T20:07:00.642Z,10.63
2019-01-05T20:09:53.572Z,10.20
2019-01-05T20:12:47.896Z,9.83
2019-01-05T20:15:51.294Z,10.17
2019-01-05T20:21:55.701Z,9.07
2019-01-05T20:24:45.149Z,7.93
2019-01-05T20:27:32.144Z,11.43
2019-01-05T20:30:18.905Z,9.50
2019-01-05T20:33:07.211Z,11.00
2019-01-05T20:36:07.105Z,9.90
2019-01-05T20:38:57.828Z,13.50
2019-01-05T20:41:49.457Z,10.30
2019-01-05T20:44:36.085Z,10.97
2019-01-05T20:47:24.430Z,11.50
2019-01-05T20:50:31.138Z,12.03
2019-01-05T20:53:23.513Z,8.50
2019-01-05T20:56:10.534Z,8.70
2019-01-05T20:58:53.481Z,10.20
2019-01-05T21:01:50.521Z,9.17
2019-01-05T21:04:44.322Z,9.53
2019-01-05T21:07:31.818Z,8.23
2019-01-05T21:10:18.473Z,9.00
2019-01-05T21:13:12.025Z,7.10
2019-01-05T21:16:13.125Z,6.80
2019-01-05T21:19:10.706Z,8.17
2019-01-05T21:22:00.293Z,6.50
2019-01-05T21:24:41.977Z,9.20
2019-01-05T21:27:25.917Z,6.87
2019-01-05T21:30:23.208Z,8.80
2019-01-05T21:33:10.500Z,7.40
2019-01-05T21:36:00.002Z,8.03
2019-01-05T21:38:47.353Z,7.53
2019-01-05T21:41:50.752Z,7.73
2019-01-05T21:44:41.929Z,8.90
2019-01-05T21:47:29.168Z,7.90
2019-01-05T21:50:17.169Z,9.50
2019-01-05T21:52:59.592Z,6.97
2019-01-05T21:55:49.565Z,12.13
2019-01-05T21:58:29.071Z,10.13
2019-01-05T22:01:16.284Z,8.60
2019-01-05T22:04:17.177Z,11.03
2019-01-05T22:07:08.997Z,11.60
2019-01-05T22:09:56.221Z,8.33
2019-01-05T22:12:44.563Z,7.40
2019-01-05T22:15:32.698Z,8.00
2019-01-05T22:18:19.905Z,9.00
2019-01-05T22:21:10.018Z,8.83
2019-01-05T22:24:13.280Z,7.90
2019-01-05T22:27:00.306Z,6.43
2019-01-05T22:29:48.962Z,8.40
2019-01-05T22:32:36.789Z,8.47
2019-01-05T22:35:23.918Z,9.50
2019-01-05T22:38:11.562Z,8.40
2019-01-05T22:41:08.841Z,10.23
2019-01-05T22:43:53.973Z,9.70
2019-01-05T22:46:42.319Z,7.30
2019-01-05T22:49:28.917Z,8.50
2019-01-05T22:52:35.251Z,9.67
2019-01-05T22:55:26.176Z,9.27
2019-01-05T22:58:20.053Z,11.83
2019-01-05T23:01:17.517Z,8.50
2019-01-05T23:04:04.224Z,11.00
2019-01-05T23:06:49.010Z,8.70
2019-01-05T23:09:36.021Z,9.37
2019-01-05T23:12:36.587Z,9.33
2019-01-05T23:15:24.749Z,10.10
2019-01-05T23:18:12.763Z,9.43
2019-01-05T23:21:00.981Z,8.40
2019-01-05T23:24:04.814Z,10.13
2019-01-05T23:27:11.474Z,7.93
2019-01-05T23:30:08.443Z,7.87
2019-01-05T23:33:14.992Z,8.23
2019-01-05T23:36:12.351Z,7.57
2019-01-05T23:38:56.152Z,10.40
2019-01-05T23:41:42.961Z,7.73
2019-01-05T23:44:46.610Z,9.77
2019-01-05T23:47:53.379Z,6.97
2019-01-05T23:50:33.248Z,8.57
2019-01-05T23:53:28.169Z,8.23
2019-01-05T23:56:28.861Z,7.70
2019-01-05T23:59:16.640Z,8.77
